Time;durP1;ratioP1;P1;durP2;ratioP2;P2;SDS_P1;SDS_P2;PMS_P1;PMS_P2;Temp;Humidity;BMP_temperature;BMP_pressure;BME280_temperature;BME280_humidity;BME280_pressure;Samples;Min_cycle;Max_cycle;Signal;HPM_P1;HPM_P2
2023/05/03 00:01:12;;;;;;;0.25;0.25;;;;;;;;;;5093832;28;20047;-74
2023/05/03 00:03:38;;;;;;;0.10;0.10;;;;;;;;;;5092651;28;20031;-75
2023/05/03 00:06:10;;;;;;;0.38;0.38;;;;;;;;;;5075945;28;20040;-75
2023/05/03 00:08:35;;;;;;;0.20;0.20;;;;;;;;;;5093825;28;20036;-75
2023/05/03 00:11:01;;;;;;;0.68;0.68;;;;;;;;;;5090693;28;20617;-77
2023/05/03 00:13:26;;;;;;;0.43;0.43;;;;;;;;;;5086172;28;20034;-75
2023/05/03 00:15:52;;;;;;;0.10;0.10;;;;;;;;;;5066047;28;20058;-75
2023/05/03 00:18:18;;;;;;;0.55;0.55;;;;;;;;;;5055901;28;20102;-76
2023/05/03 00:20:43;;;;;;;0.40;0.40;;;;;;;;;;5076914;28;20043;-76
2023/05/03 00:23:09;;;;;;;0.20;0.20;;;;;;;;;;5080145;28;20028;-75
2023/05/03 00:25:34;;;;;;;0.50;0.50;;;;;;;;;;5089147;28;20035;-74
2023/05/03 00:27:59;;;;;;;0.57;0.57;;;;;;;;;;5090244;28;20035;-75
2023/05/03 00:30:25;;;;;;;0.10;0.10;;;;;;;;;;5084091;28;20016;-74
2023/05/03 00:32:50;;;;;;;0.20;0.20;;;;;;;;;;5087136;28;20040;-75
2023/05/03 00:35:16;;;;;;;0.20;0.20;;;;;;;;;;5086382;28;20086;-75
2023/05/03 00:37:41;;;;;;;0.20;0.20;;;;;;;;;;5069122;28;20032;-75
2023/05/03 00:40:07;;;;;;;0.17;0.17;;;;;;;;;;5081513;28;20032;-77
2023/05/03 00:42:35;;;;;;;0.20;0.20;;;;;;;;;;5090560;28;20043;-75
2023/05/03 00:45:03;;;;;;;1.55;1.45;;;;;;;;;;5068868;28;20044;-75
2023/05/03 00:47:30;;;;;;;0.10;0.10;;;;;;;;;;5053919;28;20033;-76
2023/05/03 00:49:55;;;;;;;0.17;0.17;;;;;;;;;;5091773;28;20499;-75
2023/05/03 00:52:21;;;;;;;0.28;0.28;;;;;;;;;;5075528;28;20391;-74
2023/05/03 00:54:46;;;;;;;0.20;0.20;;;;;;;;;;5094478;28;20036;-76
2023/05/03 00:57:12;;;;;;;3.60;3.05;;;;;;;;;;5094566;28;20036;-75
2023/05/03 00:59:38;;;;;;;0.50;0.50;;;;;;;;;;5076322;28;20036;-75
2023/05/03 01:02:03;;;;;;;0.30;0.30;;;;;;;;;;5075997;28;20043;-76
2023/05/03 01:04:29;;;;;;;0.20;0.20;;;;;;;;;;5076488;28;20071;-76
2023/05/03 01:06:54;;;;;;;0.20;0.20;;;;;;;;;;5070260;28;20023;-76
2023/05/03 01:09:26;;;;;;;0.30;0.30;;;;;;;;;;5074337;28;20040;-75
2023/05/03 01:12:04;;;;;;;0.20;0.20;;;;;;;;;;5074288;28;20119;-75
2023/05/03 01:14:40;;;;;;;0.20;0.20;;;;;;;;;;5074042;28;20032;-75
2023/05/03 01:17:10;;;;;;;0.10;0.10;;;;;;;;;;5056159;28;20040;-76
2023/05/03 01:19:41;;;;;;;1.48;1.38;;;;;;;;;;5074162;28;20384;-75
2023/05/03 01:22:21;;;;;;;0.20;0.20;;;;;;;;;;5072846;28;20037;-75
2023/05/03 01:24:49;;;;;;;0.30;0.30;;;;;;;;;;5072244;28;20033;-76
2023/05/03 01:27:15;;;;;;;0.55;0.55;;;;;;;;;;5054093;28;20040;-78
2023/05/03 01:29:40;;;;;;;0.45;0.45;;;;;;;;;;5071728;28;20385;-77
2023/05/03 01:32:11;;;;;;;2.13;1.45;;;;;;;;;;5053731;28;20075;-77
2023/05/03 01:34:39;;;;;;;0.40;0.40;;;;;;;;;;5053938;28;20036;-77
2023/05/03 01:37:09;;;;;;;2.45;2.33;;;;;;;;;;5053562;28;20398;-74
2023/05/03 01:39:34;;;;;;;0.20;0.20;;;;;;;;;;5071472;28;20111;-75
2023/05/03 01:42:01;;;;;;;0.30;0.30;;;;;;;;;;5073190;28;20111;-74
2023/05/03 01:44:26;;;;;;;0.22;0.22;;;;;;;;;;5055605;28;20032;-75
2023/05/03 01:46:52;;;;;;;0.10;0.10;;;;;;;;;;5055648;28;20438;-75
2023/05/03 01:49:17;;;;;;;0.20;0.20;;;;;;;;;;5055566;28;20067;-75
2023/05/03 01:51:43;;;;;;;0.65;0.65;;;;;;;;;;5075313;28;20386;-75
2023/05/03 01:54:10;;;;;;;0.30;0.30;;;;;;;;;;5093558;28;20076;-75
2023/05/03 01:56:36;;;;;;;0.20;0.20;;;;;;;;;;5075448;28;20036;-75
2023/05/03 01:59:02;;;;;;;0.55;0.55;;;;;;;;;;5075523;28;20036;-75
2023/05/03 02:01:27;;;;;;;0.55;0.55;;;;;;;;;;5075519;28;20044;-75
2023/05/03 02:03:53;;;;;;;1.75;1.45;;;;;;;;;;5075510;28;20039;-75
2023/05/03 02:06:18;;;;;;;0.85;0.85;;;;;;;;;;5093552;28;20028;-76
2023/05/03 02:08:44;;;;;;;0.70;0.70;;;;;;;;;;5092021;28;20028;-75
2023/05/03 02:11:10;;;;;;;0.20;0.20;;;;;;;;;;5093383;28;20108;-75
2023/05/03 02:13:36;;;;;;;0.68;0.68;;;;;;;;;;5074604;28;20111;-75
2023/05/03 02:16:01;;;;;;;0.38;0.38;;;;;;;;;;5075284;28;20032;-73
2023/05/03 02:18:30;;;;;;;0.55;0.55;;;;;;;;;;5093429;28;20032;-73
2023/05/03 02:20:56;;;;;;;0.10;0.10;;;;;;;;;;5093338;28;20028;-73
2023/05/03 02:23:23;;;;;;;0.30;0.30;;;;;;;;;;5075075;28;20020;-73
2023/05/03 02:25:48;;;;;;;0.10;0.10;;;;;;;;;;5093037;28;20058;-73
2023/05/03 02:28:14;;;;;;;0.20;0.20;;;;;;;;;;5093096;28;20165;-73
2023/05/03 02:30:40;;;;;;;0.75;0.75;;;;;;;;;;5075068;28;20149;-76
2023/05/03 02:33:05;;;;;;;0.20;0.20;;;;;;;;;;5074928;28;20085;-76
2023/05/03 02:35:31;;;;;;;0.38;0.38;;;;;;;;;;5074852;28;20035;-76
2023/05/03 02:37:56;;;;;;;0.10;0.10;;;;;;;;;;5093012;28;20055;-75
2023/05/03 02:40:21;;;;;;;0.20;0.20;;;;;;;;;;5092059;28;20441;-75
2023/05/03 02:42:47;;;;;;;0.13;0.13;;;;;;;;;;5074867;28;20118;-76
2023/05/03 02:45:16;;;;;;;;;;;;;;;;;;5076704;28;20034;-75
2023/05/03 02:47:42;;;;;;;1.55;1.45;;;;;;;;;;5093508;28;19912;-73
2023/05/03 02:50:07;;;;;;;0.20;0.20;;;;;;;;;;5094752;28;20137;-73
2023/05/03 02:52:36;;;;;;;0.43;0.43;;;;;;;;;;5074746;28;20043;-74
2023/05/03 02:55:02;;;;;;;0.25;0.25;;;;;;;;;;5073348;28;20173;-74
2023/05/03 02:57:28;;;;;;;0.40;0.40;;;;;;;;;;5073128;28;20089;-73
2023/05/03 02:59:55;;;;;;;0.10;0.10;;;;;;;;;;5073165;28;20113;-74
2023/05/03 03:02:20;;;;;;;0.20;0.20;;;;;;;;;;5070022;28;20487;-73
2023/05/03 03:04:46;;;;;;;1.45;0.82;;;;;;;;;;5069636;28;20040;-73
2023/05/03 03:07:11;;;;;;;5.97;5.70;;;;;;;;;;5087353;28;20097;-74
2023/05/03 03:09:37;;;;;;;0.10;0.10;;;;;;;;;;5069384;28;20044;-73
2023/05/03 03:12:02;;;;;;;0.65;0.65;;;;;;;;;;5069522;28;20115;-73
2023/05/03 03:14:28;;;;;;;0.25;0.25;;;;;;;;;;5070381;28;20059;-74
2023/05/03 03:16:54;;;;;;;0.20;0.20;;;;;;;;;;5088420;28;20039;-75
2023/05/03 03:19:20;;;;;;;3.33;3.20;;;;;;;;;;5070269;28;20411;-74
2023/05/03 03:21:46;;;;;;;0.20;0.20;;;;;;;;;;5069591;28;20062;-75
2023/05/03 03:24:11;;;;;;;0.20;0.20;;;;;;;;;;5070165;28;20081;-73
2023/05/03 03:26:38;;;;;;;0.10;0.10;;;;;;;;;;5070607;28;20036;-73
2023/05/03 03:29:04;;;;;;;0.10;0.10;;;;;;;;;;5088493;28;20088;-77
2023/05/03 03:31:30;;;;;;;0.30;0.30;;;;;;;;;;5070461;28;20116;-76
2023/05/03 03:33:56;;;;;;;0.20;0.20;;;;;;;;;;5070311;28;20038;-76
2023/05/03 03:36:26;;;;;;;0.10;0.10;;;;;;;;;;5070287;28;20032;-76
2023/05/03 03:38:52;;;;;;;0.20;0.20;;;;;;;;;;5070035;28;20422;-75
2023/05/03 03:41:18;;;;;;;0.10;0.10;;;;;;;;;;5088114;28;20031;-76
2023/05/03 03:43:44;;;;;;;0.20;0.20;;;;;;;;;;5069793;28;20432;-75
2023/05/03 03:46:15;;;;;;;0.13;0.13;;;;;;;;;;5069466;28;20499;-75
2023/05/03 03:48:41;;;;;;;0.20;0.20;;;;;;;;;;5070003;28;20472;-73
2023/05/03 03:51:07;;;;;;;0.20;0.20;;;;;;;;;;5068344;28;20045;-73
2023/05/03 03:53:38;;;;;;;0.20;0.20;;;;;;;;;;5072587;28;20082;-73
2023/05/03 03:56:04;;;;;;;0.13;0.13;;;;;;;;;;5073177;28;20040;-75
2023/05/03 03:58:30;;;;;;;0.10;0.10;;;;;;;;;;5091553;28;20387;-74
2023/05/03 04:00:55;;;;;;;0.35;0.35;;;;;;;;;;5072734;28;20032;-74
2023/05/03 04:03:23;;;;;;;0.10;0.10;;;;;;;;;;5073178;28;20039;-74
2023/05/03 04:05:49;;;;;;;1.27;0.82;;;;;;;;;;5072418;28;20032;-74
2023/05/03 04:08:15;;;;;;;0.10;0.10;;;;;;;;;;5073185;28;20036;-74
2023/05/03 04:10:42;;;;;;;0.30;0.30;;;;;;;;;;5072936;28;20081;-74
2023/05/03 04:13:07;;;;;;;0.20;0.20;;;;;;;;;;5073057;28;20032;-74
2023/05/03 04:15:34;;;;;;;1.45;0.73;;;;;;;;;;5072629;28;20036;-74
2023/05/03 04:18:01;;;;;;;0.20;0.20;;;;;;;;;;5072707;28;20539;-74
2023/05/03 04:20:28;;;;;;;0.20;0.20;;;;;;;;;;5071514;28;20128;-75
2023/05/03 04:22:54;;;;;;;0.30;0.30;;;;;;;;;;5072758;28;20035;-75
2023/05/03 04:25:24;;;;;;;0.20;0.20;;;;;;;;;;5089803;28;20368;-75
2023/05/03 04:27:56;;;;;;;0.10;0.10;;;;;;;;;;5072606;28;20040;-75
2023/05/03 04:30:24;;;;;;;0.20;0.20;;;;;;;;;;5072708;28;20076;-74
2023/05/03 04:32:54;;;;;;;0.20;0.20;;;;;;;;;;5072572;28;20395;-75
2023/05/03 04:35:20;;;;;;;0.20;0.20;;;;;;;;;;5089223;28;20052;-75
2023/05/03 04:37:46;;;;;;;0.20;0.20;;;;;;;;;;5055513;28;20044;-75
2023/05/03 04:40:18;;;;;;;0.20;0.20;;;;;;;;;;5071355;28;20128;-74
2023/05/03 04:42:47;;;;;;;0.20;0.20;;;;;;;;;;5072590;28;20036;-74
2023/05/03 04:45:13;;;;;;;0.30;0.30;;;;;;;;;;5071138;28;20032;-75
2023/05/03 04:47:39;;;;;;;0.20;0.20;;;;;;;;;;5072179;28;20032;-74
2023/05/03 04:50:07;;;;;;;0.20;0.20;;;;;;;;;;5072504;28;20827;-74
2023/05/03 04:52:33;;;;;;;0.15;0.15;;;;;;;;;;5072555;28;20027;-74
2023/05/03 04:54:59;;;;;;;0.20;0.20;;;;;;;;;;5072425;28;20139;-75
2023/05/03 04:57:24;;;;;;;0.40;0.40;;;;;;;;;;5074306;28;20036;-75
2023/05/03 04:59:52;;;;;;;0.10;0.10;;;;;;;;;;5073736;28;20032;-73
2023/05/03 05:02:18;;;;;;;0.10;0.10;;;;;;;;;;5087316;28;20035;-75
2023/05/03 05:04:44;;;;;;;0.20;0.20;;;;;;;;;;5087798;28;20068;-75
2023/05/03 05:07:11;;;;;;;0.20;0.20;;;;;;;;;;5071630;28;20036;-75
2023/05/03 05:09:36;;;;;;;0.20;0.20;;;;;;;;;;5071648;28;20024;-74
2023/05/03 05:12:03;;;;;;;0.13;0.13;;;;;;;;;;5070832;28;20043;-75
2023/05/03 05:14:34;;;;;;;0.20;0.20;;;;;;;;;;5071417;28;20043;-75
2023/05/03 05:17:00;;;;;;;0.20;0.20;;;;;;;;;;5050987;28;20037;-76
2023/05/03 05:19:26;;;;;;;0.20;0.20;;;;;;;;;;5052253;28;20392;-76
2023/05/03 05:21:51;;;;;;;0.20;0.20;;;;;;;;;;5055809;28;20060;-75
2023/05/03 05:24:18;;;;;;;0.30;0.30;;;;;;;;;;5069974;28;20028;-75
2023/05/03 05:26:44;;;;;;;0.20;0.20;;;;;;;;;;5071922;28;20040;-74
2023/05/03 05:29:11;;;;;;;0.20;0.20;;;;;;;;;;5071803;28;20556;-74
2023/05/03 05:31:37;;;;;;;0.10;0.10;;;;;;;;;;5071835;28;20036;-74
2023/05/03 05:34:05;;;;;;;0.20;0.20;;;;;;;;;;5071632;28;20028;-74
2023/05/03 05:36:30;;;;;;;0.20;0.20;;;;;;;;;;5071670;28;20036;-73
2023/05/03 05:38:57;;;;;;;0.20;0.20;;;;;;;;;;5071249;28;20114;-74
2023/05/03 05:41:22;;;;;;;0.20;0.20;;;;;;;;;;5071022;28;20036;-75
2023/05/03 05:43:48;;;;;;;0.20;0.20;;;;;;;;;;5070739;28;20031;-76
2023/05/03 05:46:13;;;;;;;0.20;0.20;;;;;;;;;;5070672;28;20044;-74
2023/05/03 05:48:40;;;;;;;0.20;0.20;;;;;;;;;;5070549;28;20093;-75
2023/05/03 05:51:06;;;;;;;0.20;0.20;;;;;;;;;;5071683;28;20093;-75
2023/05/03 05:53:32;;;;;;;0.20;0.20;;;;;;;;;;5070792;28;20035;-74
2023/05/03 05:56:00;;;;;;;0.20;0.20;;;;;;;;;;5071191;28;20028;-76
2023/05/03 05:58:26;;;;;;;0.20;0.20;;;;;;;;;;5067425;28;20488;-75
2023/05/03 06:01:03;;;;;;;0.20;0.20;;;;;;;;;;5070445;28;20036;-74
2023/05/03 06:03:32;;;;;;;0.20;0.20;;;;;;;;;;5071366;28;20521;-75
2023/05/03 06:06:00;;;;;;;0.28;0.28;;;;;;;;;;5071620;28;20040;-74
2023/05/03 06:08:26;;;;;;;0.20;0.20;;;;;;;;;;5089510;28;20086;-73
2023/05/03 06:10:52;;;;;;;0.20;0.20;;;;;;;;;;5068664;28;20089;-73
2023/05/03 06:13:18;;;;;;;0.17;0.17;;;;;;;;;;5063409;28;20020;-74
2023/05/03 06:15:45;;;;;;;0.20;0.20;;;;;;;;;;5066203;28;20024;-74
2023/05/03 06:18:11;;;;;;;0.20;0.20;;;;;;;;;;5042265;28;20408;-74
2023/05/03 06:20:37;;;;;;;0.20;0.20;;;;;;;;;;5082171;28;20076;-75
2023/05/03 06:23:03;;;;;;;0.20;0.20;;;;;;;;;;5058884;28;20036;-74
2023/05/03 06:25:28;;;;;;;0.20;0.20;;;;;;;;;;5071041;28;20040;-74
2023/05/03 06:27:54;;;;;;;0.20;0.20;;;;;;;;;;5088097;28;20497;-76
2023/05/03 06:30:24;;;;;;;0.10;0.10;;;;;;;;;;5065737;28;20517;-75
2023/05/03 06:32:50;;;;;;;0.30;0.30;;;;;;;;;;5071079;28;20028;-75
2023/05/03 06:35:18;;;;;;;0.20;0.20;;;;;;;;;;5064975;28;20024;-76
2023/05/03 06:37:43;;;;;;;0.20;0.20;;;;;;;;;;5067024;28;20050;-76
2023/05/03 06:40:09;;;;;;;0.20;0.20;;;;;;;;;;5066084;28;20062;-75
2023/05/03 06:42:35;;;;;;;0.50;0.50;;;;;;;;;;5060806;28;20044;-75
2023/05/03 06:45:06;;;;;;;0.28;0.28;;;;;;;;;;5059629;28;20084;-75
2023/05/03 06:47:31;;;;;;;1.63;0.98;;;;;;;;;;5077671;28;20055;-74
2023/05/03 06:49:57;;;;;;;1.27;0.82;;;;;;;;;;5076543;28;20028;-75
2023/05/03 06:52:22;;;;;;;0.68;0.68;;;;;;;;;;5063462;28;20028;-74
2023/05/03 06:54:48;;;;;;;1.60;1.30;;;;;;;;;;5079266;28;20471;-76
2023/05/03 06:57:13;;;;;;;2.00;1.05;;;;;;;;;;5077062;28;20032;-78
2023/05/03 06:59:39;;;;;;;0.47;0.47;;;;;;;;;;5076685;28;20039;-77
2023/05/03 07:02:05;;;;;;;0.20;0.20;;;;;;;;;;5076783;28;20152;-76
2023/05/03 07:04:31;;;;;;;0.20;0.20;;;;;;;;;;5077689;28;20028;-76
2023/05/03 07:06:57;;;;;;;0.30;0.30;;;;;;;;;;5078075;28;20040;-76
2023/05/03 07:09:22;;;;;;;0.22;0.22;;;;;;;;;;5079182;28;20051;-77
2023/05/03 07:11:49;;;;;;;0.50;0.40;;;;;;;;;;5077544;28;20019;-79
2023/05/03 07:14:15;;;;;;;0.20;0.20;;;;;;;;;;5076162;28;20028;-76
2023/05/03 07:16:40;;;;;;;0.20;0.20;;;;;;;;;;5077947;28;20527;-75
2023/05/03 07:19:06;;;;;;;0.20;0.20;;;;;;;;;;5077480;28;20115;-75
2023/05/03 07:21:32;;;;;;;0.20;0.20;;;;;;;;;;5076275;28;20021;-75
2023/05/03 07:23:58;;;;;;;0.20;0.20;;;;;;;;;;5078127;28;20110;-79
2023/05/03 07:26:25;;;;;;;0.35;0.35;;;;;;;;;;5077807;28;20456;-75
2023/05/03 07:28:51;;;;;;;0.20;0.20;;;;;;;;;;5079726;28;20035;-73
2023/05/03 07:31:16;;;;;;;0.20;0.20;;;;;;;;;;5081297;28;20073;-75
2023/05/03 07:33:42;;;;;;;0.20;0.20;;;;;;;;;;5080120;28;20062;-76
2023/05/03 07:36:08;;;;;;;0.20;0.20;;;;;;;;;;5080079;28;20475;-75
2023/05/03 07:38:33;;;;;;;0.85;0.77;;;;;;;;;;5081258;28;20099;-75
2023/05/03 07:40:58;;;;;;;0.20;0.20;;;;;;;;;;5079319;28;20024;-78
2023/05/03 07:43:24;;;;;;;0.73;0.70;;;;;;;;;;5062296;28;20053;-76
2023/05/03 07:45:50;;;;;;;1.80;0.85;;;;;;;;;;5080263;28;20545;-78
2023/05/03 07:48:15;;;;;;;0.20;0.20;;;;;;;;;;5079398;28;20036;-76
2023/05/03 07:50:43;;;;;;;0.28;0.28;;;;;;;;;;5080989;28;20174;-74
2023/05/03 07:53:08;;;;;;;0.20;0.20;;;;;;;;;;5080358;28;20052;-74
2023/05/03 07:55:35;;;;;;;0.20;0.20;;;;;;;;;;5078982;28;20017;-75
2023/05/03 07:58:01;;;;;;;0.22;0.22;;;;;;;;;;5080178;28;20443;-76
2023/05/03 08:00:27;;;;;;;0.20;0.20;;;;;;;;;;5080157;28;20029;-78
2023/05/03 08:02:52;;;;;;;0.20;0.20;;;;;;;;;;5078816;28;20031;-75
2023/05/03 08:05:18;;;;;;;0.20;0.20;;;;;;;;;;5080961;28;20032;-76
2023/05/03 08:07:44;;;;;;;0.25;0.25;;;;;;;;;;5079670;28;20017;-75
2023/05/03 08:10:09;;;;;;;0.20;0.20;;;;;;;;;;5079453;28;20077;-75
2023/05/03 08:12:35;;;;;;;0.50;0.50;;;;;;;;;;5080527;28;20015;-79
2023/05/03 08:15:00;;;;;;;0.20;0.20;;;;;;;;;;5060801;28;20044;-77
2023/05/03 08:17:26;;;;;;;0.20;0.20;;;;;;;;;;5079842;28;20024;-75
2023/05/03 08:19:54;;;;;;;0.85;0.85;;;;;;;;;;5080353;28;20037;-75
2023/05/03 08:22:20;;;;;;;0.20;0.20;;;;;;;;;;5078768;28;20502;-77
2023/05/03 08:24:46;;;;;;;0.20;0.20;;;;;;;;;;5079640;28;20024;-75
2023/05/03 08:27:12;;;;;;;0.20;0.20;;;;;;;;;;5080407;28;20373;-74
2023/05/03 08:29:37;;;;;;;0.45;0.45;;;;;;;;;;5078251;28;20031;-75
2023/05/03 08:32:03;;;;;;;0.98;0.55;;;;;;;;;;5079954;28;20042;-69
2023/05/03 08:34:29;;;;;;;0.20;0.20;;;;;;;;;;5084435;28;20103;-70
2023/05/03 08:36:55;;;;;;;0.30;0.30;;;;;;;;;;5079261;28;20103;-70
2023/05/03 08:39:23;;;;;;;0.82;0.35;;;;;;;;;;5077668;28;20360;-70
2023/05/03 08:41:49;;;;;;;0.25;0.25;;;;;;;;;;5082961;28;20489;-69
2023/05/03 08:44:24;;;;;;;0.20;0.20;;;;;;;;;;5084865;28;20039;-69
2023/05/03 08:46:50;;;;;;;1.42;1.00;;;;;;;;;;5086373;28;20028;-69
2023/05/03 08:49:16;;;;;;;0.20;0.20;;;;;;;;;;5090700;28;20429;-70
2023/05/03 08:51:42;;;;;;;0.57;0.40;;;;;;;;;;5065771;28;20123;-69
2023/05/03 08:54:07;;;;;;;0.68;0.60;;;;;;;;;;5079712;28;20050;-69
2023/05/03 08:56:38;;;;;;;0.32;0.32;;;;;;;;;;5083443;28;21499;-69
2023/05/03 08:59:07;;;;;;;0.90;0.65;;;;;;;;;;5083199;28;20620;-69
2023/05/03 09:01:34;;;;;;;0.32;0.32;;;;;;;;;;5086323;28;20102;-70
2023/05/03 09:04:00;;;;;;;0.20;0.20;;;;;;;;;;5090854;28;20070;-70
2023/05/03 09:06:26;;;;;;;2.53;0.30;;;;;;;;;;5083989;28;20456;-70
2023/05/03 09:08:52;;;;;;;0.55;0.50;;;;;;;;;;5074462;28;20055;-69
2023/05/03 09:11:21;;;;;;;1.20;0.93;;;;;;;;;;5074550;28;20075;-69
2023/05/03 09:13:47;;;;;;;0.20;0.20;;;;;;;;;;5070559;28;20545;-69
2023/05/03 09:16:20;;;;;;;0.77;0.65;;;;;;;;;;5071380;28;20044;-70
2023/05/03 09:18:55;;;;;;;1.00;0.43;;;;;;;;;;5075723;28;20500;-70
2023/05/03 09:21:20;;;;;;;0.43;0.43;;;;;;;;;;5087215;28;20084;-69
2023/05/03 09:23:46;;;;;;;0.50;0.50;;;;;;;;;;5090138;28;20032;-70
2023/05/03 09:26:26;;;;;;;3.72;0.88;;;;;;;;;;5090359;28;20036;-70
2023/05/03 09:28:51;;;;;;;1.40;0.63;;;;;;;;;;5090814;28;20036;-70
2023/05/03 09:31:17;;;;;;;0.73;0.50;;;;;;;;;;5080398;28;20032;-70
2023/05/03 09:33:42;;;;;;;0.20;0.20;;;;;;;;;;5083798;28;20024;-69
2023/05/03 09:36:08;;;;;;;1.10;0.50;;;;;;;;;;5089528;28;20107;-69
2023/05/03 09:38:35;;;;;;;2.72;0.73;;;;;;;;;;5088468;28;20043;-68
2023/05/03 09:41:01;;;;;;;0.20;0.20;;;;;;;;;;5089612;28;20072;-70
2023/05/03 09:43:26;;;;;;;0.75;0.55;;;;;;;;;;5089763;28;20073;-69
2023/05/03 09:46:05;;;;;;;1.15;0.65;;;;;;;;;;5089641;28;20099;-70
2023/05/03 09:48:31;;;;;;;0.52;0.52;;;;;;;;;;5088590;28;20441;-68
2023/05/03 09:50:56;;;;;;;1.08;0.80;;;;;;;;;;5073862;28;20107;-70
2023/05/03 09:53:22;;;;;;;0.50;0.40;;;;;;;;;;5068270;28;20213;-70
2023/05/03 09:55:49;;;;;;;2.55;1.95;;;;;;;;;;5079705;28;20020;-70
2023/05/03 09:58:17;;;;;;;0.50;0.50;;;;;;;;;;5081957;28;20036;-69
2023/05/03 10:00:46;;;;;;;1.30;0.80;;;;;;;;;;5081474;28;20384;-69
2023/05/03 10:03:17;;;;;;;1.55;0.68;;;;;;;;;;5085716;28;20039;-69
2023/05/03 10:05:46;;;;;;;1.20;0.82;;;;;;;;;;5084844;28;20486;-70
2023/05/03 10:08:14;;;;;;;0.93;0.70;;;;;;;;;;5077845;28;20032;-69
2023/05/03 10:10:42;;;;;;;1.30;0.97;;;;;;;;;;5069393;28;20052;-70
2023/05/03 10:13:08;;;;;;;0.60;0.60;;;;;;;;;;5066280;28;20920;-69
2023/05/03 10:15:35;;;;;;;1.05;0.57;;;;;;;;;;5069102;28;20028;-70
2023/05/03 10:18:02;;;;;;;2.95;0.77;;;;;;;;;;5076418;28;20047;-70
2023/05/03 10:20:40;;;;;;;0.20;0.20;;;;;;;;;;5080509;28;20024;-70
2023/05/03 10:23:05;;;;;;;8.52;0.80;;;;;;;;;;5089274;28;20042;-70
2023/05/03 10:25:31;;;;;;;0.40;0.40;;;;;;;;;;5089436;28;20044;-70
2023/05/03 10:28:02;;;;;;;0.80;0.45;;;;;;;;;;5089098;28;20032;-70
2023/05/03 10:30:29;;;;;;;0.68;0.57;;;;;;;;;;5089118;28;20028;-69
2023/05/03 10:32:55;;;;;;;0.85;0.40;;;;;;;;;;5089036;28;20054;-70
2023/05/03 10:35:24;;;;;;;0.50;0.50;;;;;;;;;;5089334;28;20039;-70
2023/05/03 10:37:50;;;;;;;1.08;0.63;;;;;;;;;;5088941;28;20035;-69
2023/05/03 10:40:17;;;;;;;0.77;0.40;;;;;;;;;;5089039;28;20028;-70
2023/05/03 10:42:43;;;;;;;0.47;0.47;;;;;;;;;;5089193;28;20040;-70
2023/05/03 10:45:18;;;;;;;6.82;1.10;;;;;;;;;;5070850;28;20036;-75
2023/05/03 10:48:04;;;;;;;0.80;0.70;;;;;;;;;;5088994;28;20169;-73
2023/05/03 10:50:29;;;;;;;1.40;1.00;;;;;;;;;;5089032;28;20036;-73
2023/05/03 10:52:55;;;;;;;6.82;6.13;;;;;;;;;;5088937;28;20073;-74
2023/05/03 10:55:23;;;;;;;0.95;0.82;;;;;;;;;;5088774;28;20113;-73
2023/05/03 10:57:52;;;;;;;0.35;0.35;;;;;;;;;;5088417;28;20027;-73
2023/05/03 11:00:21;;;;;;;1.02;0.80;;;;;;;;;;5070495;28;20032;-73
2023/05/03 11:03:05;;;;;;;1.83;0.95;;;;;;;;;;5088080;28;20534;-73
2023/05/03 11:05:32;;;;;;;0.22;0.22;;;;;;;;;;5088819;28;20059;-73
2023/05/03 11:08:36;;;;;;;2.20;0.77;;;;;;;;;;5088395;28;20028;-73
2023/05/03 11:11:04;;;;;;;1.60;1.25;;;;;;;;;;5037366;28;20048;-75
2023/05/03 11:13:29;;;;;;;1.17;0.70;;;;;;;;;;5088978;28;20066;-73
2023/05/03 11:15:55;;;;;;;0.60;0.55;;;;;;;;;;5088420;28;20677;-74
2023/05/03 11:18:21;;;;;;;2.20;0.60;;;;;;;;;;5088505;28;20490;-74
2023/05/03 11:20:46;;;;;;;0.40;0.40;;;;;;;;;;5088184;28;20032;-74
2023/05/03 11:23:12;;;;;;;1.20;0.65;;;;;;;;;;5077570;28;20032;-75
2023/05/03 11:25:38;;;;;;;0.43;0.40;;;;;;;;;;5078424;28;20044;-75
2023/05/03 11:28:03;;;;;;;0.40;0.40;;;;;;;;;;5079727;28;20056;-74
2023/05/03 11:30:31;;;;;;;0.80;0.70;;;;;;;;;;5068374;28;20031;-75
2023/05/03 11:32:57;;;;;;;1.20;0.82;;;;;;;;;;5068248;28;20392;-73
2023/05/03 11:35:25;;;;;;;5.03;0.50;;;;;;;;;;5067787;28;20421;-74
2023/05/03 11:37:51;;;;;;;0.70;0.47;;;;;;;;;;5066224;28;20101;-75
2023/05/03 11:40:17;;;;;;;3.70;0.80;;;;;;;;;;5077686;28;20507;-74
2023/05/03 11:42:52;;;;;;;6.85;1.08;;;;;;;;;;5079541;28;20031;-73
2023/05/03 11:45:20;;;;;;;0.98;0.65;;;;;;;;;;5049931;28;20064;-73
2023/05/03 11:47:46;;;;;;;1.35;0.40;;;;;;;;;;5067929;28;20036;-74
2023/05/03 11:50:11;;;;;;;0.32;0.32;;;;;;;;;;5073368;28;20024;-75
2023/05/03 11:52:37;;;;;;;0.22;0.22;;;;;;;;;;5076779;28;20119;-73
2023/05/03 11:55:03;;;;;;;3.15;1.33;;;;;;;;;;5067783;28;20037;-75
2023/05/03 11:57:30;;;;;;;0.93;0.85;;;;;;;;;;5068394;28;20032;-72
2023/05/03 12:00:08;;;;;;;4.55;1.23;;;;;;;;;;5075908;28;20036;-75
2023/05/03 12:02:37;;;;;;;2.78;0.88;;;;;;;;;;5086151;28;20078;-75
2023/05/03 12:05:02;;;;;;;0.90;0.70;;;;;;;;;;5068150;28;20059;-75
2023/05/03 12:07:28;;;;;;;0.52;0.52;;;;;;;;;;5087953;28;20028;-75
2023/05/03 12:09:53;;;;;;;0.30;0.30;;;;;;;;;;5087396;28;20408;-74
2023/05/03 12:12:19;;;;;;;1.52;0.73;;;;;;;;;;5088001;28;20624;-75
2023/05/03 12:14:57;;;;;;;2.90;1.17;;;;;;;;;;5090880;28;20460;-75
2023/05/03 12:17:52;;;;;;;0.68;0.68;;;;;;;;;;5091645;28;20123;-75
2023/05/03 12:20:21;;;;;;;15.50;0.95;;;;;;;;;;5073738;28;20062;-74
2023/05/03 12:22:47;;;;;;;1.15;1.05;;;;;;;;;;5091166;28;20038;-76
2023/05/03 12:25:12;;;;;;;0.20;0.20;;;;;;;;;;5091087;28;20044;-75
2023/05/03 12:27:38;;;;;;;0.30;0.30;;;;;;;;;;5090993;28;20035;-75
2023/05/03 12:30:04;;;;;;;0.20;0.20;;;;;;;;;;5091366;28;20115;-75
2023/05/03 12:32:29;;;;;;;0.20;0.20;;;;;;;;;;5091112;28;20471;-75
2023/05/03 12:34:55;;;;;;;0.22;0.22;;;;;;;;;;5090885;28;20043;-76
2023/05/03 12:37:20;;;;;;;0.20;0.20;;;;;;;;;;5090204;28;20051;-76
2023/05/03 12:39:46;;;;;;;0.73;0.65;;;;;;;;;;5091248;28;20451;-76
2023/05/03 12:42:12;;;;;;;0.30;0.30;;;;;;;;;;5091222;28;20031;-76
2023/05/03 12:44:38;;;;;;;0.45;0.45;;;;;;;;;;5090229;28;20862;-75
2023/05/03 12:47:04;;;;;;;0.38;0.30;;;;;;;;;;5090968;28;20039;-75
2023/05/03 12:49:29;;;;;;;0.63;0.50;;;;;;;;;;5090617;28;20040;-76
2023/05/03 12:51:59;;;;;;;0.20;0.20;;;;;;;;;;5091215;28;20023;-75
2023/05/03 12:54:24;;;;;;;1.75;0.65;;;;;;;;;;5072957;28;20911;-76
2023/05/03 12:56:50;;;;;;;1.17;0.88;;;;;;;;;;5090864;28;20108;-78
2023/05/03 12:59:15;;;;;;;3.08;1.33;;;;;;;;;;5091025;28;20028;-77
2023/05/03 13:01:41;;;;;;;1.42;0.93;;;;;;;;;;5090752;28;20135;-77
2023/05/03 13:04:06;;;;;;;1.85;1.25;;;;;;;;;;5090484;28;20036;-76
2023/05/03 13:06:32;;;;;;;8.93;2.40;;;;;;;;;;5090455;28;20044;-76
2023/05/03 13:08:58;;;;;;;3.10;1.73;;;;;;;;;;5090411;28;20032;-76
2023/05/03 13:11:24;;;;;;;0.47;0.47;;;;;;;;;;5090579;28;20077;-76
2023/05/03 13:13:51;;;;;;;1.90;1.45;;;;;;;;;;5090464;28;20089;-76
2023/05/03 13:16:18;;;;;;;1.67;1.30;;;;;;;;;;5090553;28;20501;-76
2023/05/03 13:18:44;;;;;;;3.08;2.00;;;;;;;;;;5090486;28;20356;-77
2023/05/03 13:21:10;;;;;;;4.18;2.13;;;;;;;;;;5090586;28;20039;-76
2023/05/03 13:23:35;;;;;;;2.42;1.85;;;;;;;;;;5089931;28;20110;-77
2023/05/03 13:26:01;;;;;;;2.60;1.73;;;;;;;;;;5089808;28;20111;-75
2023/05/03 13:28:26;;;;;;;2.67;2.08;;;;;;;;;;5092728;28;20063;-76
2023/05/03 13:30:52;;;;;;;0.93;0.70;;;;;;;;;;5093563;28;20024;-76
2023/05/03 13:33:17;;;;;;;3.67;2.15;;;;;;;;;;5091962;28;20395;-76
2023/05/03 13:35:43;;;;;;;2.88;1.27;;;;;;;;;;5072127;28;20102;-76
2023/05/03 13:38:08;;;;;;;4.65;3.08;;;;;;;;;;5090066;28;20498;-76
2023/05/03 13:40:33;;;;;;;3.20;2.08;;;;;;;;;;5090068;28;20028;-76
2023/05/03 13:42:59;;;;;;;2.22;1.50;;;;;;;;;;5089821;28;20028;-77
2023/05/03 13:45:24;;;;;;;3.83;2.45;;;;;;;;;;5089925;28;20036;-76
2023/05/03 13:47:50;;;;;;;3.60;2.30;;;;;;;;;;5090222;28;20047;-76
2023/05/03 13:50:16;;;;;;;8.25;2.70;;;;;;;;;;5089969;28;20043;-76
2023/05/03 13:52:43;;;;;;;0.75;0.75;;;;;;;;;;5090108;28;20040;-75
2023/05/03 13:55:09;;;;;;;3.92;3.42;;;;;;;;;;5089689;28;20047;-76
2023/05/03 13:57:35;;;;;;;2.80;2.20;;;;;;;;;;5089772;28;20040;-76
2023/05/03 14:00:00;;;;;;;8.98;3.22;;;;;;;;;;5071741;28;20044;-76
2023/05/03 14:02:26;;;;;;;3.85;2.50;;;;;;;;;;5089818;28;20024;-76
2023/05/03 14:04:52;;;;;;;7.28;3.00;;;;;;;;;;5089641;28;20115;-76
2023/05/03 14:07:18;;;;;;;3.60;1.83;;;;;;;;;;5071447;28;20072;-76
2023/05/03 14:09:43;;;;;;;0.38;0.38;;;;;;;;;;5089527;28;20105;-76
2023/05/03 14:12:08;;;;;;;1.52;1.42;;;;;;;;;;5089705;28;20035;-76
2023/05/03 14:14:35;;;;;;;0.20;0.20;;;;;;;;;;5089834;28;20016;-76
2023/05/03 14:17:01;;;;;;;0.20;0.20;;;;;;;;;;5090230;28;20421;-76
2023/05/03 14:19:26;;;;;;;0.10;0.10;;;;;;;;;;5071424;28;20036;-76
2023/05/03 14:21:57;;;;;;;0.20;0.20;;;;;;;;;;5089200;28;20036;-76
2023/05/03 14:24:23;;;;;;;0.20;0.20;;;;;;;;;;5089325;28;20036;-76
2023/05/03 14:26:48;;;;;;;0.17;0.17;;;;;;;;;;5071204;28;20376;-76
2023/05/03 14:29:14;;;;;;;0.30;0.30;;;;;;;;;;5085448;28;20528;-75
2023/05/03 14:31:39;;;;;;;0.20;0.20;;;;;;;;;;5088298;28;20541;-76
2023/05/03 14:34:05;;;;;;;0.20;0.20;;;;;;;;;;5087608;28;20039;-76
2023/05/03 14:36:34;;;;;;;0.20;0.20;;;;;;;;;;5087666;28;20039;-76
2023/05/03 14:39:01;;;;;;;0.20;0.20;;;;;;;;;;5069806;28;20036;-76
2023/05/03 14:41:26;;;;;;;4.50;1.85;;;;;;;;;;5089099;28;20103;-76